Kingvale, California
Current Conditions -  °F | °C
As of 6:52 PM on Wednesday 22 Oct 2014 (Local Time) from KBLU Reporting Station
Clear Clear  
Wind Chill: 50°   Ceiling: Unl
Heat Index: 50°   Visibility: 10mi
Dew Point: 35°   Wind: 5mph
Humidity: 57%   Direction: 150°SSE
Pressure: 30.15"   Gusts: NA
Location:  39.4261°N, 120.475°W
Report Text: KBLU 230152Z AUTO 15004KT 10SM CLR 10/02 A3015 RMK AO2 SLP170 T01000017 $
Loading
Personal Weather Stations






























Interactive Weather Map
Tropical Storm Tracking
New forecast layout! Learn more

10-Day Weather Forecast

Advertisements
Track Severe Weather on mobile